createdAt,value
2023-03-17T00:01:54.584Z,8.33
2023-03-17T00:04:24.566Z,8.29
2023-03-17T00:06:51.721Z,8.20
2023-03-17T00:09:19.933Z,8.22
2023-03-17T00:11:47.087Z,8.14
2023-03-17T00:14:14.200Z,8.16
2023-03-17T00:16:51.441Z,8.17
2023-03-17T00:19:31.127Z,8.25
2023-03-17T00:22:00.131Z,8.44
2023-03-17T00:24:27.452Z,8.49
2023-03-17T00:26:54.100Z,8.41
2023-03-17T00:29:21.107Z,8.51
2023-03-17T00:31:48.268Z,8.48
2023-03-17T00:34:18.282Z,8.33
2023-03-17T00:36:48.277Z,8.21
2023-03-17T00:41:42.340Z,8.13
2023-03-17T00:44:10.051Z,8.03
2023-03-17T00:46:39.378Z,8.06
2023-03-17T00:51:43.882Z,8.06
2023-03-17T00:54:11.376Z,8.12
2023-03-17T00:56:39.247Z,8.17
2023-03-17T00:59:19.428Z,8.25
2023-03-17T01:01:47.687Z,8.03
2023-03-17T01:04:14.382Z,8.14
2023-03-17T01:06:41.862Z,8.03
2023-03-17T01:09:12.842Z,8.06
2023-03-17T01:11:39.422Z,8.08
2023-03-17T01:14:10.045Z,8.13
2023-03-17T01:16:37.146Z,8.01
2023-03-17T01:19:04.865Z,8.01
2023-03-17T01:21:32.301Z,8.19
2023-03-17T01:23:59.017Z,8.23
2023-03-17T01:26:26.143Z,8.15
2023-03-17T01:28:52.714Z,8.05
2023-03-17T01:31:19.572Z,8.19
2023-03-17T01:33:46.178Z,8.22
2023-03-17T01:36:12.747Z,8.14
2023-03-17T01:38:41.458Z,8.07
2023-03-17T01:41:10.594Z,7.84
2023-03-17T01:43:38.453Z,7.81
2023-03-17T01:46:13.895Z,7.93
2023-03-17T01:48:53.155Z,8.02
2023-03-17T01:51:32.567Z,8.08
2023-03-17T01:54:01.460Z,8.04
2023-03-17T01:56:29.035Z,8.12
2023-03-17T01:58:59.473Z,8.22
2023-03-17T02:01:33.503Z,8.34
2023-03-17T02:04:01.278Z,8.43
2023-03-17T02:06:27.864Z,8.45
2023-03-17T02:08:54.328Z,8.36
2023-03-17T02:11:22.396Z,8.30
2023-03-17T02:13:48.834Z,8.19
2023-03-17T02:16:17.279Z,8.09
2023-03-17T02:18:44.947Z,8.08
2023-03-17T02:21:42.181Z,7.88
2023-03-17T02:24:15.689Z,7.80
2023-03-17T02:26:44.655Z,7.82
2023-03-17T02:29:12.698Z,7.74
2023-03-17T02:31:39.190Z,7.85
2023-03-17T02:34:05.699Z,7.89
2023-03-17T02:36:32.270Z,7.82
2023-03-17T02:38:59.310Z,7.60
2023-03-17T02:41:25.860Z,7.67
2023-03-17T02:43:53.717Z,7.71
2023-03-17T02:46:20.988Z,7.86
2023-03-17T02:48:50.022Z,7.97
2023-03-17T02:51:16.555Z,7.99
2023-03-17T02:53:44.203Z,8.04
2023-03-17T02:56:10.958Z,7.95
2023-03-17T02:58:40.381Z,7.96
2023-03-17T03:01:09.905Z,7.89
2023-03-17T03:03:38.344Z,7.88
2023-03-17T03:06:04.989Z,7.84
2023-03-17T03:08:32.006Z,7.91
2023-03-17T03:11:00.328Z,7.91
2023-03-17T03:13:27.014Z,7.90
2023-03-17T03:15:53.574Z,7.86
2023-03-17T03:18:20.172Z,7.93
2023-03-17T03:20:47.294Z,7.89
2023-03-17T03:23:14.211Z,7.90
2023-03-17T03:25:40.811Z,7.95
2023-03-17T03:28:09.214Z,7.92
2023-03-17T03:30:37.619Z,7.88
2023-03-17T03:33:04.903Z,7.82
2023-03-17T03:35:31.687Z,7.82
2023-03-17T03:38:01.527Z,7.84
2023-03-17T03:40:28.408Z,7.87
2023-03-17T03:42:55.270Z,7.88
2023-03-17T03:45:22.884Z,7.91
2023-03-17T03:47:49.692Z,7.81
2023-03-17T03:50:16.848Z,7.80
2023-03-17T03:52:43.369Z,7.81
2023-03-17T03:55:11.555Z,7.61
2023-03-17T03:57:41.341Z,7.55
2023-03-17T04:00:10.993Z,7.39
2023-03-17T04:02:38.483Z,7.46
2023-03-17T04:05:08.140Z,7.41
2023-03-17T04:07:37.259Z,7.36
2023-03-17T04:10:04.518Z,7.33
2023-03-17T04:12:31.452Z,7.41
2023-03-17T04:14:58.044Z,7.22
2023-03-17T04:17:24.553Z,7.19
2023-03-17T04:19:51.250Z,7.25
2023-03-17T04:22:17.908Z,7.18
2023-03-17T04:24:45.189Z,7.13
2023-03-17T04:27:15.547Z,7.22
2023-03-17T04:29:43.576Z,7.17
2023-03-17T04:32:14.862Z,7.12
2023-03-17T04:34:42.429Z,7.13
2023-03-17T04:37:11.695Z,7.13
2023-03-17T04:39:39.896Z,7.22
2023-03-17T04:42:07.139Z,7.27
2023-03-17T04:44:34.258Z,7.32
2023-03-17T04:47:00.724Z,7.38
2023-03-17T04:49:27.456Z,7.40
2023-03-17T04:51:54.329Z,7.48
2023-03-17T04:54:21.657Z,7.52
2023-03-17T04:56:51.572Z,7.34
2023-03-17T04:59:18.152Z,7.05
2023-03-17T05:01:44.525Z,6.94
2023-03-17T05:04:16.732Z,6.97
2023-03-17T05:06:48.545Z,7.10
2023-03-17T05:09:16.954Z,7.11
2023-03-17T05:11:44.396Z,7.20
2023-03-17T05:14:11.060Z,7.26
2023-03-17T05:16:38.528Z,7.28
2023-03-17T05:19:04.966Z,7.34
2023-03-17T05:21:31.512Z,7.07
2023-03-17T05:23:57.959Z,7.16
2023-03-17T05:26:31.478Z,7.07
2023-03-17T05:28:57.986Z,7.13
2023-03-17T05:31:24.769Z,7.27
2023-03-17T05:33:51.260Z,7.38
2023-03-17T05:36:18.074Z,7.47
2023-03-17T05:38:44.924Z,7.43
2023-03-17T05:41:12.187Z,7.36
2023-03-17T05:43:39.589Z,7.30
2023-03-17T05:46:06.132Z,7.27
2023-03-17T05:48:34.069Z,7.32
2023-03-17T05:51:02.674Z,7.31
2023-03-17T05:53:29.582Z,7.19
2023-03-17T05:55:56.250Z,7.06
2023-03-17T05:58:22.865Z,7.11
2023-03-17T06:00:49.277Z,7.12
2023-03-17T06:03:15.822Z,7.18
2023-03-17T06:05:42.739Z,7.25
2023-03-17T06:08:10.324Z,7.34
2023-03-17T06:10:37.853Z,7.34
2023-03-17T06:13:04.654Z,7.42
2023-03-17T06:15:31.921Z,7.50
2023-03-17T06:17:59.280Z,7.54
2023-03-17T06:20:27.426Z,7.45
2023-03-17T06:23:04.039Z,7.49
2023-03-17T06:25:32.973Z,7.47
2023-03-17T06:28:01.460Z,7.47
2023-03-17T06:30:28.293Z,7.35
2023-03-17T06:32:55.829Z,7.49
2023-03-17T06:35:22.976Z,7.64
2023-03-17T06:37:49.381Z,7.76
2023-03-17T06:40:17.539Z,7.81
2023-03-17T06:42:45.619Z,7.66
2023-03-17T06:45:12.916Z,7.59
2023-03-17T06:47:40.791Z,7.60
2023-03-17T06:50:10.024Z,7.86
2023-03-17T06:52:40.070Z,8.21
2023-03-17T06:55:09.024Z,8.33
2023-03-17T06:57:35.883Z,8.57
2023-03-17T07:00:05.084Z,8.90
2023-03-17T07:02:31.599Z,9.24
2023-03-17T07:04:58.446Z,9.31
2023-03-17T07:07:25.172Z,9.44
2023-03-17T07:09:52.751Z,9.63
2023-03-17T07:12:20.116Z,9.90
2023-03-17T07:14:46.620Z,10.20
2023-03-17T07:17:14.592Z,10.30
2023-03-17T07:19:42.374Z,10.09
2023-03-17T07:22:12.086Z,10.19
2023-03-17T07:24:39.511Z,10.36
2023-03-17T07:27:06.122Z,10.28
2023-03-17T07:29:34.125Z,10.55
2023-03-17T07:32:01.733Z,10.48
2023-03-17T07:34:28.403Z,10.38
2023-03-17T07:36:54.865Z,10.16
2023-03-17T07:39:22.443Z,10.37
2023-03-17T07:41:53.013Z,10.57
2023-03-17T07:44:19.806Z,10.62
2023-03-17T07:46:46.386Z,10.69
2023-03-17T07:49:13.271Z,10.58
2023-03-17T07:51:43.057Z,10.49
2023-03-17T07:54:14.770Z,10.99
2023-03-17T07:56:41.709Z,11.20
2023-03-17T07:59:10.836Z,11.15
2023-03-17T08:01:40.389Z,11.26
2023-03-17T08:04:08.894Z,11.68
2023-03-17T08:06:35.827Z,11.59
2023-03-17T08:09:02.541Z,11.63
2023-03-17T08:11:29.511Z,11.75
2023-03-17T08:13:56.300Z,11.63
2023-03-17T08:16:23.077Z,11.69
2023-03-17T08:18:49.648Z,11.60
2023-03-17T08:21:17.010Z,11.59
2023-03-17T08:23:44.919Z,11.79
2023-03-17T08:26:11.377Z,11.73
2023-03-17T08:28:39.790Z,11.85
2023-03-17T08:31:16.689Z,11.83
2023-03-17T08:33:50.067Z,11.98
2023-03-17T08:36:19.106Z,12.11
2023-03-17T08:38:47.177Z,12.12
2023-03-17T08:41:18.181Z,12.25
2023-03-17T08:43:45.725Z,12.57
2023-03-17T08:46:19.576Z,13.01
2023-03-17T08:48:48.696Z,13.23
2023-03-17T08:51:18.421Z,13.16
2023-03-17T08:53:46.658Z,13.28
2023-03-17T08:56:14.740Z,13.20
2023-03-17T08:58:42.592Z,13.29
2023-03-17T09:01:10.837Z,13.38
2023-03-17T09:03:41.093Z,13.27
2023-03-17T09:06:11.146Z,13.33
2023-03-17T09:08:41.347Z,13.39
2023-03-17T09:11:10.367Z,13.47
2023-03-17T09:13:42.457Z,13.39
2023-03-17T09:16:10.038Z,13.76
2023-03-17T09:18:39.476Z,14.11
2023-03-17T09:21:07.086Z,14.22
2023-03-17T09:23:33.762Z,14.61
2023-03-17T09:26:01.161Z,14.86
2023-03-17T09:28:29.164Z,14.81
2023-03-17T09:31:01.535Z,14.79
2023-03-17T09:33:29.055Z,14.66
2023-03-17T09:35:59.085Z,14.55
2023-03-17T09:38:28.773Z,14.48
2023-03-17T09:41:26.966Z,14.69
2023-03-17T09:44:22.967Z,15.17
2023-03-17T09:47:04.486Z,15.40
2023-03-17T09:49:48.872Z,15.50
2023-03-17T09:52:19.090Z,15.64
2023-03-17T09:54:49.515Z,15.88
2023-03-17T09:57:18.078Z,15.92
2023-03-17T09:59:48.067Z,16.10
2023-03-17T10:02:28.626Z,15.59
2023-03-17T10:04:56.136Z,15.71
2023-03-17T10:07:28.575Z,15.97
2023-03-17T10:10:03.524Z,15.98
2023-03-17T10:12:52.171Z,16.09
2023-03-17T10:15:25.243Z,16.04
2023-03-17T10:17:53.310Z,16.13
2023-03-17T10:20:32.290Z,16.16
2023-03-17T10:23:03.688Z,16.70
2023-03-17T10:25:37.399Z,16.91
2023-03-17T10:28:21.622Z,16.76
2023-03-17T10:30:48.941Z,16.87
2023-03-17T10:33:16.143Z,16.90
2023-03-17T10:35:44.834Z,16.82
2023-03-17T10:38:20.772Z,16.77
2023-03-17T10:40:56.790Z,16.80
2023-03-17T10:43:28.174Z,16.82
2023-03-17T10:46:03.293Z,17.06
2023-03-17T10:48:35.330Z,17.23
2023-03-17T10:51:08.603Z,16.95
2023-03-17T10:53:44.088Z,17.05
2023-03-17T10:56:21.704Z,17.03
2023-03-17T10:58:50.134Z,17.31
2023-03-17T11:01:18.065Z,16.98
2023-03-17T11:03:46.676Z,16.72
2023-03-17T11:06:16.910Z,16.38
2023-03-17T11:08:53.752Z,16.35
2023-03-17T11:11:33.517Z,16.46
2023-03-17T11:14:05.314Z,16.09
2023-03-17T11:16:38.881Z,16.09
2023-03-17T11:19:13.891Z,16.63
2023-03-17T11:22:07.427Z,16.77
2023-03-17T11:24:41.692Z,16.50
2023-03-17T11:27:40.491Z,16.61
2023-03-17T11:30:10.758Z,17.06
2023-03-17T11:32:48.317Z,17.19
2023-03-17T11:35:47.245Z,17.64
2023-03-17T11:38:32.497Z,18.23
2023-03-17T11:41:21.350Z,17.90
2023-03-17T11:44:08.628Z,18.29
2023-03-17T11:46:54.446Z,18.75
2023-03-17T11:49:25.577Z,18.63
2023-03-17T11:52:03.318Z,18.78
2023-03-17T11:54:45.688Z,19.64
2023-03-17T11:57:18.793Z,20.47
2023-03-17T11:59:54.887Z,20.89
2023-03-17T12:02:40.841Z,20.56
2023-03-17T12:05:21.782Z,20.46
2023-03-17T12:07:53.240Z,20.75
2023-03-17T12:10:44.956Z,20.43
2023-03-17T12:13:23.616Z,20.53
2023-03-17T12:15:54.161Z,20.78
2023-03-17T12:18:31.586Z,21.77
2023-03-17T12:21:01.733Z,22.56
2023-03-17T12:23:46.419Z,23.46
2023-03-17T12:26:33.388Z,24.32
2023-03-17T12:29:14.873Z,25.46
2023-03-17T12:31:48.824Z,26.69
2023-03-17T12:34:22.316Z,27.66
2023-03-17T12:36:49.987Z,27.38
2023-03-17T12:39:21.163Z,27.06
2023-03-17T12:42:02.308Z,27.26
2023-03-17T12:44:33.100Z,28.26
2023-03-17T12:47:21.360Z,27.85
2023-03-17T12:50:15.911Z,26.91
2023-03-17T12:52:45.380Z,26.56
2023-03-17T12:55:17.666Z,25.94
2023-03-17T12:58:00.580Z,25.54
2023-03-17T13:00:31.644Z,25.78
2023-03-17T13:03:24.227Z,25.91
2023-03-17T13:05:55.058Z,25.88
2023-03-17T13:08:31.232Z,24.63
2023-03-17T13:11:27.521Z,23.86
2023-03-17T13:13:54.448Z,23.96
2023-03-17T13:16:30.000Z,23.84
2023-03-17T13:19:14.519Z,23.73
2023-03-17T13:22:09.608Z,24.30
2023-03-17T13:24:42.091Z,24.56
2023-03-17T13:27:14.665Z,24.70
2023-03-17T13:29:44.065Z,24.79
2023-03-17T13:32:17.222Z,25.75
2023-03-17T13:34:55.903Z,26.07
2023-03-17T13:37:44.241Z,26.19
2023-03-17T13:40:37.430Z,26.02
2023-03-17T13:43:32.578Z,26.57
2023-03-17T13:46:37.862Z,26.85
2023-03-17T13:49:15.136Z,27.78
2023-03-17T13:51:52.737Z,27.67
2023-03-17T13:54:28.337Z,27.40
2023-03-17T13:57:00.355Z,27.94
2023-03-17T13:59:59.541Z,27.26
2023-03-17T14:02:29.319Z,27.39
2023-03-17T14:05:02.752Z,27.49
2023-03-17T14:07:47.940Z,27.22
2023-03-17T14:10:21.204Z,27.14
2023-03-17T14:12:55.402Z,27.42
2023-03-17T14:15:31.140Z,27.70
2023-03-17T14:18:15.839Z,28.06
2023-03-17T14:20:55.642Z,28.72
2023-03-17T14:23:23.901Z,29.35
2023-03-17T14:25:51.118Z,29.43
2023-03-17T14:28:26.103Z,28.72
2023-03-17T14:30:55.387Z,27.85
2023-03-17T14:33:34.591Z,27.75
2023-03-17T14:36:02.976Z,28.16
2023-03-17T14:38:35.567Z,27.55
2023-03-17T14:41:06.832Z,28.09
2023-03-17T14:43:35.639Z,29.40
2023-03-17T14:46:04.942Z,28.90
2023-03-17T14:48:35.259Z,27.19
2023-03-17T14:51:06.729Z,25.88
2023-03-17T14:53:35.460Z,24.71
2023-03-17T14:56:06.216Z,24.13
2023-03-17T14:58:42.233Z,23.57
2023-03-17T15:01:35.044Z,23.29
2023-03-17T15:04:16.752Z,23.13
2023-03-17T15:06:52.293Z,22.73
2023-03-17T15:09:34.161Z,23.02
2023-03-17T15:12:07.174Z,23.13
2023-03-17T15:14:54.839Z,23.51
2023-03-17T15:17:27.814Z,23.65
2023-03-17T15:19:59.621Z,24.26
2023-03-17T15:22:30.543Z,24.70
2023-03-17T15:25:16.513Z,25.15
2023-03-17T15:27:44.205Z,24.62
2023-03-17T15:30:12.429Z,24.04
2023-03-17T15:32:41.844Z,23.96
2023-03-17T15:35:12.430Z,24.52
2023-03-17T15:37:39.957Z,24.60
2023-03-17T15:40:10.697Z,24.32
2023-03-17T15:42:41.364Z,24.32
2023-03-17T15:45:08.428Z,24.64
2023-03-17T15:47:40.363Z,24.64
2023-03-17T15:50:25.712Z,24.00
2023-03-17T15:52:58.495Z,23.16
2023-03-17T15:55:30.837Z,23.16
2023-03-17T15:58:01.063Z,22.81
2023-03-17T16:00:30.105Z,22.61
2023-03-17T16:03:01.913Z,22.42
2023-03-17T16:05:31.192Z,22.14
2023-03-17T16:07:58.310Z,21.88
2023-03-17T16:10:28.201Z,21.70
2023-03-17T16:12:55.312Z,21.22
2023-03-17T16:15:27.770Z,20.64
2023-03-17T16:17:58.351Z,20.40
2023-03-17T16:20:25.022Z,20.40
2023-03-17T16:22:54.630Z,20.20
2023-03-17T16:25:25.821Z,20.05
2023-03-17T16:27:54.636Z,20.08
2023-03-17T16:30:22.961Z,19.90
2023-03-17T16:32:49.972Z,19.59
2023-03-17T16:35:19.358Z,19.69
2023-03-17T16:37:47.154Z,19.51
2023-03-17T16:40:19.790Z,19.48
2023-03-17T16:42:47.549Z,19.30
2023-03-17T16:45:19.394Z,19.16
2023-03-17T16:47:45.925Z,18.90
2023-03-17T16:50:22.652Z,18.91
2023-03-17T16:52:49.145Z,18.73
2023-03-17T16:55:19.702Z,18.43
2023-03-17T16:57:47.998Z,18.38
2023-03-17T17:00:19.157Z,18.41
2023-03-17T17:02:47.940Z,18.35
2023-03-17T17:05:18.583Z,18.31
2023-03-17T17:07:46.228Z,18.07
2023-03-17T17:10:15.579Z,17.78
2023-03-17T17:12:42.344Z,17.96
2023-03-17T17:15:12.662Z,17.93
2023-03-17T17:17:41.870Z,18.04
2023-03-17T17:20:30.917Z,17.92
2023-03-17T17:22:58.491Z,17.92
2023-03-17T17:25:26.286Z,17.58
2023-03-17T17:27:54.020Z,17.31
2023-03-17T17:30:24.355Z,17.39
2023-03-17T17:32:51.325Z,17.41
2023-03-17T17:35:18.621Z,17.49
2023-03-17T17:37:45.081Z,17.49
2023-03-17T17:40:20.519Z,17.40
2023-03-17T17:42:47.189Z,17.07
2023-03-17T17:45:15.578Z,16.72
2023-03-17T17:47:42.325Z,16.86
2023-03-17T17:50:18.159Z,16.81
2023-03-17T17:52:46.566Z,16.83
2023-03-17T17:55:13.818Z,16.75
2023-03-17T17:57:40.498Z,16.75
2023-03-17T18:00:09.459Z,16.91
2023-03-17T18:02:36.231Z,16.61
2023-03-17T18:05:03.570Z,16.60
2023-03-17T18:07:31.065Z,16.59
2023-03-17T18:09:58.409Z,16.58
2023-03-17T18:12:25.950Z,16.51
2023-03-17T18:14:56.541Z,16.24
2023-03-17T18:17:23.253Z,16.18
2023-03-17T18:19:52.899Z,16.16
2023-03-17T18:22:20.425Z,16.17
2023-03-17T18:24:48.416Z,16.25
2023-03-17T18:27:16.462Z,16.25
2023-03-17T18:29:43.521Z,16.40
2023-03-17T18:32:12.762Z,16.34
2023-03-17T18:34:46.706Z,16.42
2023-03-17T18:37:16.122Z,16.41
2023-03-17T18:39:43.290Z,16.03
2023-03-17T18:42:11.517Z,16.01
2023-03-17T18:44:40.472Z,16.16
2023-03-17T18:47:07.578Z,16.17
2023-03-17T18:49:34.779Z,16.31
2023-03-17T18:52:01.718Z,16.14
2023-03-17T18:54:28.898Z,16.02
2023-03-17T18:56:56.495Z,16.17
2023-03-17T18:59:23.075Z,16.14
2023-03-17T19:01:49.490Z,16.12
2023-03-17T19:04:16.297Z,16.13
2023-03-17T19:06:42.955Z,16.07
2023-03-17T19:09:11.175Z,16.02
2023-03-17T19:11:41.963Z,16.07
2023-03-17T19:14:11.003Z,16.08
2023-03-17T19:16:38.563Z,15.90
2023-03-17T19:19:05.572Z,15.85
2023-03-17T19:21:32.451Z,15.99
2023-03-17T19:24:01.344Z,15.86
2023-03-17T19:26:28.277Z,15.97
2023-03-17T19:28:56.712Z,15.90
2023-03-17T19:31:25.040Z,15.72
2023-03-17T19:33:51.875Z,15.78
2023-03-17T19:36:18.786Z,15.78
2023-03-17T19:38:45.872Z,15.49
2023-03-17T19:41:15.373Z,15.52
2023-03-17T19:43:42.200Z,15.42
2023-03-17T19:46:18.276Z,15.19
2023-03-17T19:48:44.681Z,15.35
2023-03-17T19:51:12.671Z,15.34
2023-03-17T19:53:40.713Z,15.16
2023-03-17T19:56:07.249Z,15.14
2023-03-17T19:58:33.743Z,15.34
2023-03-17T20:01:00.357Z,15.43
2023-03-17T20:03:26.757Z,15.20
2023-03-17T20:05:53.831Z,15.10
2023-03-17T20:08:22.623Z,15.12
2023-03-17T20:10:53.929Z,15.06
2023-03-17T20:13:21.926Z,15.12
2023-03-17T20:15:49.911Z,15.02
2023-03-17T20:18:17.047Z,15.04
2023-03-17T20:20:49.460Z,14.81
2023-03-17T20:23:16.941Z,14.94
2023-03-17T20:25:44.054Z,14.80
2023-03-17T20:28:12.458Z,14.60
2023-03-17T20:30:40.943Z,14.79
2023-03-17T20:33:08.277Z,14.81
2023-03-17T20:35:35.372Z,14.99
2023-03-17T20:38:02.153Z,14.84
2023-03-17T20:40:28.875Z,14.88
2023-03-17T20:42:55.958Z,15.09
2023-03-17T20:45:23.289Z,15.19
2023-03-17T20:47:49.842Z,15.15
2023-03-17T20:50:16.800Z,15.03
2023-03-17T20:52:43.471Z,15.04
2023-03-17T20:55:14.749Z,14.84
2023-03-17T20:57:42.961Z,14.67
2023-03-17T21:00:13.201Z,14.84
2023-03-17T21:02:40.893Z,14.88
2023-03-17T21:05:07.701Z,14.76
2023-03-17T21:07:34.490Z,14.80
2023-03-17T21:10:02.135Z,14.62
2023-03-17T21:12:28.761Z,14.58
2023-03-17T21:14:55.831Z,14.71
2023-03-17T21:17:23.348Z,14.66
2023-03-17T21:19:50.043Z,14.72
2023-03-17T21:22:17.657Z,14.65
2023-03-17T21:24:44.167Z,14.63
2023-03-17T21:27:12.103Z,14.58
2023-03-17T21:29:41.930Z,14.62
2023-03-17T21:32:08.761Z,14.67
2023-03-17T21:34:36.934Z,14.42
2023-03-17T21:37:03.589Z,14.25
2023-03-17T21:39:30.256Z,14.28
2023-03-17T21:41:57.519Z,14.27
2023-03-17T21:44:24.579Z,14.26
2023-03-17T21:46:51.097Z,13.97
2023-03-17T21:49:18.674Z,13.86
2023-03-17T21:51:46.858Z,13.82
2023-03-17T21:54:14.387Z,14.08
2023-03-17T21:56:43.170Z,14.29
2023-03-17T21:59:11.808Z,14.37
2023-03-17T22:01:39.022Z,14.31
2023-03-17T22:04:05.572Z,14.37
2023-03-17T22:06:32.382Z,14.07
2023-03-17T22:08:59.027Z,13.76
2023-03-17T22:11:25.476Z,13.78
2023-03-17T22:13:52.225Z,13.68
2023-03-17T22:16:19.713Z,13.75
2023-03-17T22:18:47.449Z,13.71
2023-03-17T22:21:14.789Z,13.55
2023-03-17T22:23:42.266Z,13.37
2023-03-17T22:26:13.524Z,13.52
2023-03-17T22:28:43.632Z,13.53
2023-03-17T22:31:13.343Z,13.63
2023-03-17T22:33:42.848Z,13.57
2023-03-17T22:36:12.421Z,13.49
2023-03-17T22:38:38.969Z,13.59
2023-03-17T22:41:10.936Z,13.59
2023-03-17T22:43:37.901Z,13.53
2023-03-17T22:46:04.822Z,13.48
2023-03-17T22:48:32.798Z,13.36
2023-03-17T22:51:08.078Z,13.33
2023-03-17T22:53:35.377Z,13.37
2023-03-17T22:56:02.816Z,13.32
2023-03-17T22:58:29.245Z,13.31
2023-03-17T23:00:56.408Z,13.20
2023-03-17T23:03:24.204Z,13.31
2023-03-17T23:05:53.225Z,13.33
2023-03-17T23:08:21.058Z,13.45
2023-03-17T23:10:49.963Z,13.46
2023-03-17T23:13:17.554Z,13.26
2023-03-17T23:15:44.116Z,13.10
2023-03-17T23:18:11.584Z,12.89
2023-03-17T23:20:40.386Z,12.73
2023-03-17T23:23:08.437Z,12.73
2023-03-17T23:25:36.495Z,12.69
2023-03-17T23:28:03.032Z,12.89
2023-03-17T23:30:29.980Z,13.04
2023-03-17T23:32:57.307Z,13.19
2023-03-17T23:35:25.745Z,13.28
2023-03-17T23:37:52.471Z,13.05
2023-03-17T23:40:19.021Z,12.87
2023-03-17T23:42:48.071Z,12.93
2023-03-17T23:45:16.609Z,12.89
2023-03-17T23:47:43.751Z,12.70
2023-03-17T23:50:12.638Z,12.84
2023-03-17T23:52:40.679Z,12.91
2023-03-17T23:55:08.228Z,12.90
2023-03-17T23:57:35.017Z,12.89
